Maryland METAR Reports


Distance/Direction noted is from Ellicott City, MD as the crow flies

KCBE - Cumberland - 118 miles WNW
Updated: Thu, 10/23/2014 2:13 AM
Overcast
Overcast
 Wind from NW
Wind: NW 9 mph, Gust: 17 mph
Temperature: 50°F
Wind Chill: 46°F
Dew Point: 41°F
Humidity: 71%
Barometer: 30.08 inHg
Clouds: Overcast
Visibility: 10 miles
Cloud Details: Overcast 2500 ft
2014/10/23 06:13 KCBE 230613Z AUTO 31008G15KT 10SM OVC025 10/05 A3008 RMK AO1
KHGR - Hagerstown - 57 miles NW
Updated: Thu, 10/23/2014 1:53 AM
Mostly Cloudy
Mostly Cloudy
 Wind from NNW
Wind: NNW 14 mph
Temperature: 50°F
Wind Chill: 45°F
Dew Point: 39°F
Humidity: 67%
Barometer: 29.96 inHg
Clouds: Mostly Cloudy
Visibility: 10 miles
Cloud Details: Mostly Cloudy 2800 ft
2014/10/23 05:53 KHGR 230553Z AUTO 33012KT 10SM BKN028 10/04 A2996 RMK AO2 SLP156 T01000044 10117 20089 58011 TSNO
 
KFDK - Frederick - 34 miles NW
Updated: Thu, 10/23/2014 2:10 AM
Overcast
Overcast
 Wind from NW
Wind: NW 8 mph
Temperature: 55°F
Dew Point: 41°F
Humidity: 59%
Barometer: 29.96 inHg
Clouds: Overcast
Visibility: 10 miles
Cloud Details: Overcast 4000 ft
2014/10/23 06:10 KFDK 230610Z AUTO 32007KT 10SM OVC040 13/05 A2996 RMK AO2 LTG DSNT E
KGAI - Gaithersburg - 26 miles SW
Updated: Thu, 10/23/2014 2:15 AM
Overcast
Overcast
 Wind from NW
Wind: NW 14 mph, Gust: 20 mph
Temperature: 48°F
Wind Chill: 42°F
Dew Point: 41°F
Humidity: 76%
Barometer: 29.93 inHg
Clouds: Overcast
Visibility: 10 miles
Cloud Details: Overcast 3400 ft
2014/10/23 06:15 KGAI 230615Z 31012G17KT 10SM OVC034 09/05 A2993 RMK AO1
 
KBWI - BWI Airport - 15 miles SE
Updated: Thu, 10/23/2014 1:54 AM
Overcast
Overcast
 Wind from NW
Wind: NW 12 mph, Gust: 18 mph
Temperature: 52°F
Dew Point: 43°F
Humidity: 72%
Barometer: 29.87 inHg
Clouds: Overcast
Visibility: 10 miles
Cloud Details: Overcast 3100 ft
2014/10/23 05:54 KBWI 230554Z 31010G16KT 10SM OVC031 11/06 A2987 RMK AO2 SLP114 T01110061 10122 20111 56015
KNAK - Annapolis - 32 miles SSE
Updated: Thu, 10/23/2014 1:54 AM
Overcast
Overcast
 Wind from NW
Wind: NW 13 mph
Temperature: 54°F
Dew Point: 45°F
Humidity: 72%
Barometer: 29.85 inHg
Clouds: Overcast
Visibility: 10 miles
Cloud Details: Overcast 3400 ft
2014/10/23 05:54 KNAK 230554Z AUTO 31011KT 10SM OVC034 12/07 A2985 RMK AO2 SLP110 60001 T01220067 10133 20122 56015
 
KESN - Easton - 63 miles SE
Updated: Thu, 10/23/2014 2:26 AM
Overcast
Overcast
 Wind from NNW
Wind: NNW 16 mph, Gust: 23 mph
Temperature: 55°F
Dew Point: 48°F
Humidity: 77%
Barometer: 29.86 inHg
Clouds: Overcast
Visibility: 10 miles
Cloud Details: Overcast 3100 ft
2014/10/23 06:26 KESN 230626Z AUTO 34014G20KT 10SM OVC031 13/09 A2986 RMK AO2 T01300089
KSBY - Salisbury - 112 miles SE
Updated: Thu, 10/23/2014 2:02 AM
Overcast
Overcast
 Wind from NW
Wind: NW 15 mph, Gust: 24 mph
Temperature: 55°F
Dew Point: 45°F
Humidity: 67%
Barometer: 29.79 inHg
Clouds: Overcast
Visibility: 10 miles
Cloud Details: Mostly Cloudy 2700 ft
Mostly Cloudy 3200 ft
Overcast 4900 ft
2014/10/23 06:02 KSBY 230602Z AUTO 32013G21KT 10SM BKN027 BKN032 OVC049 13/07 A2979 RMK AO2